Weather observations for the past three days for
Kennett - Kennett Memorial Airport
| Date | Time (cdt) | Wind (kph) | Vis. (km) | Weather | Sky Cond. | Temperature (ºC) | Relative Humidity | Wind Chill (°C) | Heat Index (°C) | Pressure | Precipitation (cm) | ||||||
|---|---|---|---|---|---|---|---|---|---|---|---|---|---|---|---|---|---|
| Air | Dwpt | 6 hour | altimeter (cm) | sea level (mb) | 1 hr | 3 hr | 6 hr | ||||||||||
| Max. | Min. | ||||||||||||||||
| 08 | 08:15 | S 9 | 16.09 | Fair | CLR | 16 | 14 | 88% | 76.23 | 0.0 | |||||||
| 08 | 07:55 | S 9 | 14.48 | Fair | CLR | 15 | 14 | 94% | 76.23 | 0.0 | |||||||
| 08 | 07:35 | S 7 | 14.48 | Fair | CLR | 14 | 13 | 94% | 76.23 | 0.0 | |||||||
| 08 | 07:15 | Calm | 14.48 | Fair | CLR | 13 | 13 | 100% | 76.23 | 0.0 | |||||||
| 08 | 06:55 | SW 6 | 16.09 | Fair | CLR | 11 | 11 | 100% | 76.2 | 0.0 | |||||||
| 08 | 06:35 | S 6 | 16.09 | Fair | CLR | 10 | 10 | 100% | 76.2 | 0.0 | |||||||
| 08 | 06:15 | S 7 | 16.09 | Fair | CLR | 9 | 9 | 100% | 8 | 76.15 | 0.0 | ||||||
| 08 | 05:55 | S 9 | 16.09 | Fair | CLR | 9 | 9 | 100% | 8 | 76.12 | 0.0 | ||||||
| 08 | 05:35 | Calm | 16.09 | Fair | CLR | 9 | 9 | 100% | 76.12 | 0.0 | |||||||
| 08 | 05:15 | SW 6 | 16.09 | Fair | CLR | 9 | 9 | 100% | 76.12 | 0.0 | |||||||
| 08 | 04:55 | Calm | 16.09 | Fair | CLR | 9 | 9 | 100% | 76.15 | 0.0 | |||||||
| 08 | 04:35 | Calm | 16.09 | Fair | CLR | 10 | 10 | 100% | 76.15 | 0.0 | |||||||
| 08 | 04:15 | Calm | 16.09 | Fair | CLR | 9 | 9 | 100% | 76.15 | 0.0 | |||||||
| 08 | 03:55 | S 6 | 16.09 | Fair | CLR | 10 | 10 | 100% | 76.15 | 0.0 | |||||||
| 08 | 03:35 | Calm | 16.09 | Fair | CLR | 10 | 10 | 100% | 76.15 | 0.0 | |||||||
| 08 | 03:15 | Calm | 16.09 | Fair | CLR | 10 | 10 | 100% | 76.15 | 0.0 | |||||||
| 08 | 02:55 | Calm | 16.09 | Fair | CLR | 11 | 11 | 100% | 76.17 | 0.0 | |||||||
| 08 | 02:35 | Calm | 16.09 | Fair | CLR | 11 | 11 | 100% | 76.17 | 0.0 | |||||||
| 08 | 02:15 | Calm | 16.09 | Fair | CLR | 10 | 10 | 100% | 76.2 | 0.0 | |||||||
| 08 | 01:55 | Calm | 14.48 | Fair | CLR | 11 | 11 | 100% | 76.2 | 0.0 | |||||||
| 08 | 01:35 | Calm | 16.09 | Fair | CLR | 12 | 11 | 94% | 76.2 | 0.0 | |||||||
| 08 | 01:15 | Calm | 14.48 | Fair | CLR | 11 | 11 | 100% | 76.23 | 0.0 | |||||||
| 08 | 00:55 | Calm | 16.09 | Fair | CLR | 12 | 12 | 100% | 76.23 | 0.0 | |||||||
| 08 | 00:35 | Calm | 16.09 | Fair | CLR | 12 | 12 | 100% | 76.23 | 0.0 | |||||||
| 08 | 00:15 | Calm | 16.09 | Fair | CLR | 12 | 12 | 100% | 76.2 | 0.0 | |||||||
| 07 | 23:55 | S 6 | 16.09 | Fair | CLR | 12 | 11 | 94% | 76.2 | 0.0 | |||||||
| 07 | 23:35 | Calm | 16.09 | Fair | CLR | 13 | 11 | 88% | 76.23 | 0.0 | |||||||
| 07 | 23:15 | S 9 | 16.09 | Fair | CLR | 13 | 11 | 88% | 76.23 | 0.0 | |||||||
| 07 | 22:55 | S 9 | 16.09 | Fair | CLR | 13 | 12 | 94% | 76.23 | 0.0 | |||||||
| 07 | 22:35 | Calm | 16.09 | Fair | CLR | 13 | 12 | 94% | 76.2 | 0.0 | |||||||
| 07 | 22:15 | SE 6 | 16.09 | Fair | CLR | 13 | 12 | 94% | 76.23 | 0.0 | |||||||
| 07 | 21:55 | SE 7 | 16.09 | Fair | CLR | 13 | 12 | 94% | 76.2 | 0.0 | |||||||
| 07 | 21:35 | SE 7 | 16.09 | Fair | CLR | 13 | 11 | 88% | 76.2 | 0.0 | |||||||
| 07 | 21:15 | Calm | 16.09 | Fair | CLR | 14 | 12 | 88% | 76.17 | 0.0 | |||||||
| 07 | 20:55 | SE 7 | 16.09 | Fair | CLR | 14 | 12 | 88% | 76.15 | 0.0 | |||||||
| 07 | 20:35 | SE 7 | 16.09 | Fair | CLR | 14 | 12 | 88% | 76.15 | 0.0 | |||||||
| 07 | 20:15 | SE 6 | 16.09 | Fair | CLR | 15 | 13 | 88% | 76.15 | 0.0 | |||||||
| 07 | 19:55 | SE 9 | 16.09 | Fair | CLR | 16 | 11 | 72% | 76.15 | 0.0 | |||||||
| 07 | 19:35 | S 6 | 16.09 | Fair | CLR | 18 | 4 | 40% | 76.15 | 0.0 | |||||||
| 07 | 19:15 | Calm | 16.09 | Fair | CLR | 19 | 5 | 40% | 76.12 | 0.0 | |||||||
| 07 | 18:55 | Calm | 14.48 | Fair | CLR | 20 | 4 | 35% | 76.15 | 0.0 | |||||||
| 07 | 18:35 | Calm | 16.09 | Fair | CLR | 20 | 4 | 35% | 76.15 | 0.0 | |||||||
| 07 | 18:15 | Calm | 16.09 | Fair | CLR | 20 | 4 | 35% | 76.12 | 0.0 | |||||||
| 07 | 17:55 | Calm | 16.09 | Fair | CLR | 20 | 4 | 35% | 76.15 | 0.0 | |||||||
| 07 | 17:35 | Vrbl 7 | 16.09 | Fair | CLR | 20 | 3 | 33% | 76.15 | 0.0 | |||||||
| 07 | 17:15 | Calm | 16.09 | Fair | CLR | 20 | 3 | 33% | 76.17 | 0.0 | |||||||
| 07 | 16:55 | NW 11 | 16.09 | Fair | CLR | 20 | 3 | 33% | 76.15 | 0.0 | |||||||
| 07 | 16:35 | Vrbl 6 | 16.09 | Fair | CLR | 20 | 3 | 33% | 76.17 | 0.0 | |||||||
| 07 | 16:15 | NW 13 | 16.09 | Fair | CLR | 20 | 3 | 33% | 76.17 | 0.0 | |||||||
| 07 | 15:15 | NW 11 | 16.09 | Fair | CLR | 20 | 3 | 33% | 76.2 | 0.0 | |||||||
| 07 | 14:55 | N 9 | 16.09 | Fair | CLR | 19 | 4 | 37% | 76.23 | 0.0 | |||||||
| 07 | 14:35 | N 11 | 16.09 | Fair | CLR | 19 | 4 | 37% | 76.23 | 0.0 | |||||||
| 07 | 14:15 | NE 15 | 16.09 | Fair | CLR | 19 | 4 | 37% | 76.25 | 0.0 | |||||||
| 07 | 13:55 | NW 17 | 16.09 | Fair | CLR | 19 | 4 | 37% | 76.25 | 0.0 | |||||||
| 07 | 13:35 | Calm | 16.09 | Fair | CLR | 18 | 3 | 37% | 76.28 | 0.0 | |||||||
| 07 | 13:15 | Vrbl 6 G 19 | 16.09 | Fair | CLR | 18 | 5 | 43% | 76.28 | 0.0 | |||||||
| 07 | 12:55 | NW 11 | 16.09 | Fair | CLR | 19 | 5 | 40% | 76.3 | 0.0 | |||||||
| 07 | 12:35 | Vrbl 6 G 24 | 16.09 | Fair | CLR | 18 | 5 | 43% | 76.33 | 0.0 | |||||||
| 07 | 12:15 | NW 11 | 16.09 | Fair | CLR | 18 | 5 | 43% | 76.33 | 0.0 | |||||||
| 07 | 11:55 | NW 17 | 16.09 | Fair | CLR | 18 | 5 | 43% | 76.35 | 0.0 | |||||||
| 07 | 11:35 | Vrbl 7 G 19 | 16.09 | Fair | CLR | 17 | 5 | 45% | 76.35 | 0.0 | |||||||
| 07 | 11:15 | NE 13 | 16.09 | Fair | CLR | 17 | 6 | 49% | 76.35 | 0.0 | |||||||
| 07 | 10:55 | Vrbl 9 | 16.09 | Fair | CLR | 16 | 5 | 48% | 76.38 | 0.0 | |||||||
| 07 | 10:35 | Vrbl 9 G 19 | 16.09 | Fair | CLR | 16 | 7 | 55% | 76.35 | 0.0 | |||||||
| 07 | 10:15 | Vrbl 9 | 16.09 | Fair | CLR | 16 | 8 | 59% | 76.38 | 0.0 | |||||||
| 07 | 09:55 | Vrbl 7 | 16.09 | Fair | CLR | 15 | 8 | 63% | 76.4 | 0.0 | |||||||
| 07 | 09:35 | Vrbl 11 | 16.09 | Fair | CLR | 15 | 10 | 72% | 76.38 | 0.0 | |||||||
| 07 | 09:15 | NE 11 | 16.09 | Fair | CLR | 14 | 11 | 82% | 76.4 | 0.0 | |||||||
| 07 | 08:55 | NE 13 | 16.09 | Fair | CLR | 14 | 10 | 77% | 76.38 | 0.0 | |||||||
| 07 | 08:35 | NE 11 | 16.09 | Fair | CLR | 13 | 11 | 88% | 76.38 | 0.0 | |||||||
| 07 | 08:15 | NE 15 | 16.09 | Fair | CLR | 13 | 11 | 88% | 76.35 | 0.0 | |||||||
| 07 | 07:55 | N 11 | 9.66 | Fog/Mist | CLR | 12 | 11 | 94% | 76.35 | 0.0 | |||||||
| 07 | 07:35 | N 13 | 11.27 | Fair | CLR | 11 | 11 | 100% | 76.35 | 0.0 | |||||||
| 07 | 07:15 | N 15 | 16.09 | Fair | CLR | 10 | 10 | 100% | 8 | 76.33 | 0.0 | ||||||
| 07 | 06:55 | N 15 | 16.09 | Fair | CLR | 10 | 10 | 100% | 8 | 76.3 | 0.0 | ||||||
| 07 | 06:35 | N 11 | 16.09 | Fair | CLR | 9 | 9 | 100% | 8 | 76.3 | 0.0 | ||||||
| 07 | 06:15 | N 13 | 16.09 | Fair | CLR | 8 | 8 | 100% | 6 | 76.28 | 0.0 | ||||||
| 07 | 05:55 | N 11 | 16.09 | Fair | CLR | 8 | 8 | 100% | 6 | 76.25 | 0.0 | ||||||
| 07 | 05:35 | N 11 | 16.09 | Fair | CLR | 9 | 9 | 100% | 8 | 76.28 | 0.0 | ||||||
| 07 | 05:15 | N 11 | 16.09 | Fair | CLR | 9 | 9 | 100% | 8 | 76.25 | 0.0 | ||||||
| 07 | 04:55 | N 11 | 16.09 | Fair | CLR | 9 | 9 | 100% | 8 | 76.25 | 0.0 | ||||||
| 07 | 04:35 | N 11 | 16.09 | Fair | CLR | 9 | 9 | 100% | 8 | 76.25 | 0.0 | ||||||
| 07 | 04:15 | N 9 | 16.09 | Fair | CLR | 9 | 9 | 100% | 8 | 76.25 | 0.0 | ||||||
| 07 | 03:55 | N 9 | 16.09 | Fair | CLR | 10 | 10 | 100% | 9 | 76.25 | 0.0 | ||||||
| 07 | 03:35 | N 9 | 16.09 | Fair | CLR | 9 | 9 | 100% | 8 | 76.2 | 0.0 | ||||||
| 07 | 03:15 | N 7 | 16.09 | Fair | CLR | 10 | 10 | 100% | 9 | 76.2 | 0.0 | ||||||
| 07 | 02:55 | N 6 | 16.09 | Fair | CLR | 9 | 9 | 100% | 76.23 | 0.0 | |||||||
| 07 | 02:35 | Calm | 16.09 | Fair | CLR | 9 | 9 | 100% | 76.2 | 0.0 | |||||||
| 07 | 02:15 | Calm | 16.09 | Fair | CLR | 9 | 9 | 100% | 76.23 | 0.0 | |||||||
| 07 | 01:55 | Calm | 16.09 | Fair | CLR | 10 | 10 | 100% | 76.2 | 0.0 | |||||||
| 07 | 01:35 | Calm | 16.09 | Fair | CLR | 10 | 10 | 100% | 76.23 | 0.0 | |||||||
| 07 | 01:15 | Calm | 14.48 | Fair | CLR | 10 | 10 | 100% | 76.23 | 0.0 | |||||||
| 07 | 00:55 | Calm | 16.09 | Fair | CLR | 11 | 11 | 100% | 76.23 | 0.0 | |||||||
| 07 | 00:35 | Calm | 16.09 | Fair | CLR | 11 | 11 | 100% | 76.23 | 0.0 | |||||||
| 07 | 00:15 | Calm | 16.09 | Partly Cloudy | SCT095 SCT120 | 12 | 12 | 100% | 76.23 | 0.0 | |||||||
| 06 | 23:55 | Calm | 16.09 | Overcast | OVC095 | 12 | 12 | 100% | 76.23 | 0.0 | |||||||
| 06 | 23:35 | N 6 | 16.09 | Overcast | OVC095 | 12 | 12 | 100% | 76.2 | 0.0 | |||||||
| 06 | 23:15 | Calm | 16.09 | Mostly Cloudy | BKN095 | 12 | 12 | 100% | 76.2 | 0.0 | |||||||
| 06 | 22:55 | N 7 | 16.09 | Mostly Cloudy | BKN100 | 12 | 12 | 100% | 76.17 | 0.0 | |||||||
| 06 | 22:35 | Calm | 16.09 | Overcast | OVC100 | 12 | 12 | 100% | 76.23 | 0.0 | |||||||
| 06 | 22:15 | NW 6 | 16.09 | Overcast | OVC110 | 12 | 12 | 100% | 76.2 | 0.0 | |||||||
| 06 | 21:55 | NW 6 | 16.09 | Overcast | OVC110 | 12 | 12 | 100% | 76.2 | 0.0 | |||||||
| 06 | 21:35 | Calm | 16.09 | Mostly Cloudy | BKN110 | 12 | 12 | 100% | 76.17 | 0.0 | |||||||
| 06 | 21:15 | N 6 | 16.09 | Partly Cloudy | SCT110 | 12 | 12 | 100% | 76.15 | 0.0 | |||||||
| 06 | 20:55 | NE 7 | 16.09 | A Few Clouds | FEW110 | 13 | 12 | 94% | 76.12 | 0.0 | |||||||
| 06 | 20:35 | NE 7 | 16.09 | Fair | CLR | 12 | 12 | 100% | 76.15 | 0.0 | |||||||
| 06 | 20:15 | Calm | 16.09 | A Few Clouds | FEW070 FEW120 | 13 | 13 | 100% | 76.17 | 0.0 | |||||||
| 06 | 19:55 | Calm | 16.09 | Fair | CLR | 13 | 13 | 100% | 76.12 | 0.0 | |||||||
| 06 | 19:35 | Calm | 16.09 | Fair | CLR | 14 | 13 | 94% | 76.15 | 0.0 | |||||||
| 06 | 19:15 | Calm | 16.09 | Fair | CLR | 14 | 13 | 94% | 76.17 | 0.0 | |||||||
| 06 | 18:55 | Calm | 16.09 | Fair | CLR | 14 | 12 | 88% | 76.12 | 0.0 | |||||||
| 06 | 18:35 | NE 7 | 16.09 | Fair | CLR | 14 | 11 | 82% | 76.1 | 0.0 | |||||||
| 06 | 18:15 | NE 6 | 16.09 | Fair | CLR | 14 | 10 | 77% | 76.1 | 0.0 | |||||||
| 06 | 17:55 | NE 9 | 16.09 | Fair | CLR | 14 | 10 | 77% | 76.07 | 0.0 | |||||||
| 06 | 17:35 | N 13 G 22 | 16.09 | Fair | CLR | 14 | 10 | 77% | 76.05 | 0.0 | |||||||
| 06 | 17:15 | NE 17 G 28 | 16.09 | Fair | CLR | 14 | 10 | 77% | 76 | 0.0 | |||||||
| 06 | 16:55 | NE 17 | 16.09 | Fair | CLR | 14 | 10 | 77% | 76.05 | 0.0 | |||||||
| 06 | 16:35 | Vrbl 9 | 16.09 | Fair | CLR | 14 | 11 | 82% | 76.12 | 0.0 | |||||||
| 06 | 16:15 | NE 11 | 14.48 | Light Drizzle | CLR | 14 | 10 | 77% | 76.12 | 0.0 | |||||||
| 06 | 15:55 | N 15 | 16.09 | Fair | CLR | 14 | 9 | 72% | 76.12 | 0.0 | |||||||
| 06 | 15:35 | N 17 | 16.09 | Fair | CLR | 14 | 10 | 77% | 76.12 | 0.0 | |||||||
| 06 | 15:15 | N 20 | 16.09 | Fair | CLR | 14 | 9 | 72% | 76.17 | 0.0 | |||||||
| 06 | 14:55 | N 13 | 16.09 | Fair | CLR | 14 | 9 | 72% | 76.2 | 0.0 | |||||||
| 06 | 14:35 | NE 13 G 24 | 16.09 | Fair | CLR | 14 | 9 | 72% | 76.15 | 0.0 | |||||||
| 06 | 14:15 | NE 11 | 16.09 | Light Rain | CLR | 14 | 9 | 72% | 76.2 | 0.0 | |||||||
| 06 | 13:55 | NE 15 | 16.09 | Fair | CLR | 14 | 8 | 67% | 76.2 | 0.0 | |||||||
| 06 | 13:35 | N 20 G 31 | 16.09 | Fair | CLR | 14 | 8 | 67% | 76.15 | 0.0 | |||||||
| 06 | 13:15 | NE 20 | 16.09 | Fair | CLR | 15 | 8 | 63% | 76.12 | 0.0 | |||||||
| 06 | 12:55 | N 22 G 31 | 16.09 | A Few Clouds | FEW039 | 14 | 9 | 72% | 76.17 | 0.0 | |||||||
| 06 | 12:35 | N 24 G 33 | 16.09 | Partly Cloudy | SCT038 SCT050 | 14 | 9 | 72% | 76.15 | 0.0 | |||||||
| 06 | 12:15 | N 22 G 31 | 16.09 | Overcast | OVC038 | 14 | 9 | 72% | 76.15 | 0.0 | |||||||
| 06 | 11:55 | N 24 | 16.09 | Overcast | OVC037 | 14 | 11 | 82% | 76.17 | 0.0 | |||||||
| 06 | 11:35 | N 17 | 16.09 | Overcast | OVC037 | 13 | 11 | 88% | 76.2 | 0.0 | |||||||
| 06 | 11:15 | NE 20 G 37 | 16.09 | Overcast | OVC036 | 14 | 11 | 82% | 76.15 | 0.0 | |||||||
| 06 | 10:55 | NE 26 G 41 | 16.09 | Overcast | OVC036 | 13 | 11 | 88% | 76.12 | 0.0 | |||||||
| 06 | 10:35 | N 20 G 30 | 16.09 | Overcast | OVC037 | 13 | 11 | 88% | 76.15 | 0.0 | |||||||
| 06 | 10:15 | N 24 | 16.09 | Overcast | OVC037 | 12 | 11 | 94% | 76.12 | 0.0 | |||||||
| 06 | 09:55 | N 26 | 16.09 | Overcast | FEW020 OVC037 | 12 | 11 | 94% | 76.17 | 0.0 | |||||||
| 06 | 09:35 | N 22 G 35 | 16.09 | Overcast | FEW018 BKN037 OVC047 | 11 | 11 | 100% | 76.15 | 0.0 | |||||||
| 06 | 09:15 | N 22 | 16.09 | Overcast | BKN040 OVC047 | 11 | 11 | 100% | 76.12 | 0.0 | |||||||
| 06 | 08:55 | N 24 | 16.09 | Overcast | OVC040 | 11 | 11 | 100% | 76.1 | 0.0 | |||||||
| 06 | 08:35 | N 19 G 28 | 16.09 | Overcast | BKN036 OVC045 | 10 | 10 | 100% | 8 | 76.12 | 0.0 | ||||||
| 06 | 08:15 | N 20 | 16.09 | Overcast | BKN035 OVC044 | 10 | 10 | 100% | 8 | 76.05 | 0.0 | ||||||
| 06 | 07:55 | N 17 | 16.09 | Overcast | BKN034 OVC046 | 10 | 10 | 100% | 8 | 76.05 | 0.0 | ||||||
| 06 | 07:35 | NE 17 | 16.09 | Overcast | BKN032 OVC049 | 10 | 10 | 100% | 8 | 76 | 0.0 | ||||||
| 06 | 07:15 | N 19 G 28 | 16.09 | Overcast | BKN032 OVC050 | 10 | 10 | 100% | 8 | 76 | 0.0 | ||||||
| 06 | 06:55 | N 24 | 16.09 | Mostly Cloudy | BKN050 | 10 | 10 | 100% | 7 | 75.95 | 0.0 | ||||||
| 06 | 06:35 | NE 24 G 33 | 16.09 | Partly Cloudy | SCT050 SCT055 | 9 | 9 | 100% | 6 | 75.92 | 0.0 | ||||||
| 06 | 06:15 | NE 19 G 28 | 16.09 | Overcast | BKN050 OVC055 | 9 | 9 | 100% | 7 | 75.95 | 0.0 | ||||||
| 06 | 05:55 | NE 19 G 30 | 16.09 | Mostly Cloudy | BKN050 | 9 | 9 | 100% | 7 | 75.92 | 0.0 | ||||||
| 06 | 05:35 | N 20 G 31 | 16.09 | Overcast | BKN037 OVC050 | 9 | 9 | 100% | 6 | 75.92 | 0.0 | ||||||
| 06 | 05:15 | N 24 | 16.09 | Overcast | FEW014 OVC036 | 9 | 9 | 100% | 6 | 75.9 | 0.0 | ||||||
| 06 | 04:55 | N 22 G 33 | 16.09 | Overcast | SCT013 OVC036 | 9 | 9 | 100% | 6 | 75.87 | 0.0 | ||||||
| 06 | 04:35 | N 26 | 16.09 | Overcast | SCT013 OVC035 | 9 | 9 | 100% | 6 | 75.87 | 0.0 | ||||||
| 06 | 04:15 | N 19 G 30 | 16.09 | Overcast | BKN013 OVC033 | 10 | 10 | 100% | 8 | 75.87 | 0.0 | ||||||
| 06 | 03:55 | N 20 G 33 | 16.09 | Overcast | BKN013 OVC034 | 10 | 10 | 100% | 8 | 75.87 | 0.0 | ||||||
| 06 | 03:35 | N 26 | 16.09 | Overcast | BKN012 OVC033 | 10 | 10 | 100% | 7 | 75.79 | 0.0 | ||||||
| 06 | 03:15 | N 22 G 33 | 16.09 | Overcast | BKN013 OVC031 | 10 | 10 | 100% | 7 | 75.79 | 0.0 | ||||||
| 06 | 02:55 | N 22 | 16.09 | Overcast | SCT013 OVC031 | 10 | 10 | 100% | 7 | 75.74 | 0.0 | ||||||
| 06 | 02:35 | N 22 G 33 | 16.09 | Overcast | SCT013 SCT024 OVC031 | 10 | 10 | 100% | 7 | 75.77 | 0.0 | ||||||
| 06 | 02:15 | N 26 | 6.44 | Light Rain | FEW005 SCT012 OVC029 | 10 | 10 | 100% | 7 | 75.77 | 0.0 | ||||||
| 06 | 01:55 | N 26 G 37 | 16.09 | Light Drizzle | SCT009 SCT014 OVC028 | 10 | 10 | 100% | 7 | 75.72 | 0.0 | ||||||
| 06 | 01:35 | N 30 G 39 | 16.09 | Overcast | BKN009 BKN014 OVC029 | 10 | 10 | 100% | 7 | 75.77 | 0.0 | ||||||
| 06 | 00:55 | N 31 G 43 | 14.48 | Light Rain | FEW003 BKN010 OVC025 | 10 | 10 | 100% | 7 | 75.74 | 0.0 | ||||||
| 06 | 00:35 | N 31 | 4.83 | Rain | FEW003 OVC011 | 10 | 10 | 100% | 7 | 75.72 | 0.0 | ||||||
| 06 | 00:15 | N 28 | 12.87 | Overcast | BKN010 OVC015 | 11 | 11 | 100% | 75.69 | 0.0 | |||||||
| 05 | 23:55 | N 24 G 37 | 16.09 | Overcast | BKN010 OVC016 | 11 | 11 | 100% | 75.72 | 0.0 | |||||||
| 05 | 23:35 | N 30 | 12.87 | Light Rain | BKN009 OVC013 | 11 | 11 | 100% | 75.67 | 0.0 | |||||||
| 05 | 23:15 | N 26 G 35 | 4.83 | Heavy Rain | BKN009 OVC020 | 11 | 11 | 100% | 75.64 | 0.0 | |||||||
| 05 | 22:55 | N 22 G 35 | 16.09 | Overcast | FEW003 BKN008 OVC020 | 11 | 11 | 100% | 75.64 | 0.0 | |||||||
| 05 | 22:35 | N 28 G 43 | 2.82 | Heavy Rain | SCT004 BKN009 OVC018 | 11 | 11 | 100% | 75.64 | 0.0 | |||||||
| 05 | 22:15 | N 26 G 41 | 8.05 | Light Rain | BKN007 OVC017 | 12 | 12 | 100% | 75.62 | 0.0 | |||||||
| 05 | 21:55 | N 26 G 37 | 11.27 | Light Rain | OVC007 | 12 | 12 | 100% | 75.62 | 0.0 | |||||||
| 05 | 21:35 | N 28 G 41 | 16.09 | Overcast | OVC007 | 13 | 13 | 100% | 75.59 | 0.0 | |||||||
| 05 | 21:15 | N 24 | 14.48 | Light Rain | BKN006 OVC011 | 13 | 13 | 100% | 75.57 | 0.0 | |||||||
| 05 | 20:55 | N 30 G 41 | 12.87 | Rain | BKN004 OVC011 | 13 | 13 | 100% | 75.54 | 0.0 | |||||||
| 05 | 20:35 | N 24 G 43 | 9.66 | Light Drizzle | BKN004 OVC010 | 15 | 15 | 100% | 75.51 | 0.0 | |||||||
| 05 | 20:15 | SW 20 | 9.66 | Fog/Mist | BKN011 OVC017 | 20 | 20 | 100% | 75.41 | 0.0 | |||||||
| 05 | 19:55 | SW 17 G 31 | 12.87 | Overcast | OVC018 | 20 | 20 | 100% | 75.41 | 0.0 | |||||||
| 05 | 19:35 | S 20 | 16.09 | Overcast | OVC017 | 20 | 20 | 100% | 75.41 | 0.0 | |||||||
| 05 | 19:15 | S 17 | 9.66 | Fog/Mist | OVC017 | 20 | 20 | 100% | 75.39 | 0.0 | |||||||
| 05 | 18:55 | S 17 | 2.01 | Fog/Mist | SCT005 SCT010 OVC016 | 19 | 19 | 100% | 75.39 | 0.0 | |||||||
| 05 | 18:35 | S 17 | 1.21 | Fog/Mist | BKN005 BKN010 OVC015 | 19 | 19 | 100% | 75.44 | 0.0 | |||||||
| 05 | 18:15 | S 17 | 1.21 | Fog/Mist | OVC004 | 19 | 19 | 100% | 75.44 | 0.0 | |||||||
| 05 | 17:55 | S 19 | 0.80 | Light Drizzle | OVC004 | 19 | 19 | 100% | 75.44 | 0.0 | |||||||
| 05 | 17:35 | S 17 | 1.21 | Fog/Mist | OVC004 | 19 | 19 | 100% | 75.46 | 0.0 | |||||||
| 05 | 17:15 | S 22 | 1.21 | Fog/Mist | OVC005 | 19 | 19 | 100% | 75.46 | 0.0 | |||||||
| 05 | 16:55 | S 17 | 1.21 | Light Drizzle | BKN007 OVC011 | 19 | 19 | 100% | 75.46 | 0.0 | |||||||
| 05 | 16:35 | S 19 | 1.61 | Fog/Mist | OVC011 | 19 | 19 | 100% | 75.46 | 0.0 | |||||||
| 05 | 16:15 | S 13 G 24 | 9.66 | Fog/Mist | OVC012 | 19 | 19 | 100% | 75.49 | 0.0 | |||||||
| 05 | 15:55 | S 15 | 14.48 | Overcast | OVC013 | 19 | 19 | 100% | 75.49 | 0.0 | |||||||
| 05 | 15:35 | S 15 G 28 | 14.48 | Overcast | OVC013 | 19 | 19 | 100% | 75.49 | 0.0 | |||||||
| 05 | 15:15 | S 17 G 31 | 16.09 | Overcast | OVC013 | 19 | 19 | 100% | 75.51 | 0.0 | |||||||
| 05 | 14:55 | S 20 | 14.48 | Overcast | OVC014 | 19 | 19 | 100% | 75.51 | 0.0 | |||||||
| 05 | 14:35 | S 24 | 16.09 | Overcast | OVC013 | 19 | 19 | 100% | 75.51 | 0.0 | |||||||
| 05 | 14:15 | S 24 G 39 | 16.09 | Overcast | OVC013 | 18 | 18 | 100% | 75.51 | 0.0 | |||||||
| 05 | 13:55 | S 26 | 12.87 | Overcast | OVC013 | 18 | 18 | 100% | 75.54 | 0.0 | |||||||
| 05 | 13:35 | S 20 G 31 | 16.09 | Overcast | OVC013 | 18 | 18 | 100% | 75.54 | 0.0 | |||||||
| 05 | 13:15 | S 19 | 14.48 | Overcast | OVC013 | 18 | 18 | 100% | 75.57 | 0.0 | |||||||
| 05 | 12:55 | S 15 G 24 | 3.22 | Fog/Mist | OVC013 | 18 | 18 | 100% | 75.57 | 0.0 | |||||||
| 05 | 12:35 | S 19 G 31 | 4.83 | Fog/Mist | OVC015 | 18 | 18 | 100% | 75.59 | 0.0 | |||||||
| 05 | 12:15 | S 20 G 30 | 16.09 | Overcast | OVC015 | 19 | 19 | 100% | 75.62 | 0.0 | |||||||
| 05 | 11:55 | S 19 G 28 | 16.09 | Overcast | OVC014 | 19 | 19 | 100% | 75.59 | 0.0 | |||||||
| 05 | 11:35 | SW 22 G 31 | 16.09 | Overcast | OVC013 | 19 | 19 | 100% | 75.62 | 0.0 | |||||||
| 05 | 11:15 | S 15 | 16.09 | Overcast | OVC013 | 19 | 19 | 100% | 75.62 | 0.0 | |||||||
| 05 | 10:55 | S 13 G 24 | 16.09 | Overcast | OVC012 | 18 | 18 | 100% | 75.62 | 0.0 | |||||||
| 05 | 10:35 | S 15 | 14.48 | Overcast | OVC013 | 18 | 18 | 100% | 75.62 | 0.0 | |||||||
| 05 | 10:15 | S 11 | 16.09 | Overcast | OVC012 | 18 | 18 | 100% | 75.64 | 0.0 | |||||||
| 05 | 09:55 | S 13 G 28 | 14.48 | Overcast | OVC011 | 18 | 18 | 100% | 75.64 | 0.0 | |||||||
| 05 | 09:35 | S 17 | 16.09 | Mostly Cloudy | BKN011 | 18 | 18 | 100% | 75.59 | 0.0 | |||||||
| 05 | 09:15 | S 31 G 46 | 16.09 | A Few Clouds | FEW016 FEW021 | 18 | 18 | 100% | 75.51 | 0.0 | |||||||
| 05 | 08:55 | S 31 G 41 | 16.09 | Mostly Cloudy | BKN019 | 17 | 17 | 100% | 75.54 | 0.0 | |||||||
| 05 | 08:35 | S 20 | 14.48 | Light Drizzle | FEW020 SCT036 BKN055 | 17 | 17 | 100% | 75.62 | 0.0 | |||||||
| Date | Time (cdt) | Wind (kph) | Vis. (km) | Weather | Sky Cond. | Air | Dwpt | Max. | Min. | Relative Humidity | Wind Chill (°C) | Heat Index (°C) | altimeter (cm) | sea level (mb) | 1 hr | 3 hr | 6 hr |
| 6 hour | |||||||||||||||||
| Temperature (ºC) | Pressure | Precipitation (cm) | |||||||||||||||